ME25 weather

Sunrise Farms Airport
Fort Kent, Maine, United States

Public forecast

Using degrees Fahrenheit for public forecast. Weather courtesy of forecast.io.

Closest aviation weather report (METAR) to Sunrise Farms Airport

Closest report is Northern Aroostook Regional Airport, 7.9 nm (14.6 km) NNE. Retrieved 2019/10/20 03:53 UTC (46 minutes ago):

KFVE 200353Z AUTO 33009KT 10SM CLR 03/00 A2995 RMK AO2 SLP149 T00280000

Closest aviation forecast (TAF) to Sunrise Farms Airport

Forecast is more than 6 hours old.

Closest forecast is Northern Aroostook Regional Airport, 7.9 nm (14.6 km) NNE. Retrieved 2019/10/19 18:22 UTC (10 hours ago):

TAF KFVE 191720Z 1918/2018 31012G21KT P6SM BKN035 FM192100 31012G20KT P6SM BKN035 FM192300 30006KT P6SM BKN025 FM200900 30004KT P6SM SCT020